To NAV CANADA Home Page Login to a new session Search on AWWS site Disclaimer Vers la page française équivalente Tips FAQ What's new on the site To the Forecasts and Observations / NOTAM section To "File a Flight Plan" website Publications and other links Update of the User's profile FIC Telephone Numbers My Weather Data Folder Route Weather Data Regional Weather Data Local Weather Data To the Forecasts and Observations / NOTAM section
Request Generated 10/20/2021 at 20:21:25 UTC . Weather information available at that time is displayed.

METAR/TAF

MONCTON/GREATER MONCTON ROMEO LEBLANC INTL/NB    

METAR CYQM 202000Z 00000KT 15SM SCT026TCU BKN056 BKN088 10/08 A2981 RMK TCU4SC2AC1 AC TR SH SE-S SLP098=
SPECI CYQM 201932Z 36005KT 15SM FEW026TCU BKN038 BKN059 10/08 A2980 RMK TCU2SC4SC1 SH W SLP096=
METAR CYQM 201900Z 36009KT 300V360 15SM -SHRA FEW022 BKN038 10/07 A2979 RMK CU1SC6 SLP093=
SPECI CYQM 201851Z 30008KT 15SM -SHRA FEW028 BKN040 11/07 A2979 RMK CU1SC6 SLP091=
METAR CYQM 201800Z 29005KT 15SM FEW024 BKN048 11/06 A2977 RMK CU2SC5 SLP084=

TAF CYQM 201738Z 2018/2118 VRB03KT P6SM SCT020 BKN040 TEMPO 2018/2024
6SM -SHRA BR BKN020 BKN030
FM210000 25008KT P6SM BKN030 TEMPO 2100/2108 BKN008 OVC020
FM210800 23010KT P6SM SCT020 BKN060
FM211500 25010KT P6SM OVC025
RMK NXT FCST BY 210000Z=
Your time UTC time
Weather data provided by Environment Canada and NAV CANADA